sensor_id;sensor_type;location;lat;lon;timestamp;temperature;humidity
13093;DHT22;6612;49.568;11.000;2023-01-04T00:02:06;7.00;65.50
13093;DHT22;6612;49.568;11.000;2023-01-04T00:04:33;7.00;64.80
13093;DHT22;6612;49.568;11.000;2023-01-04T00:07:01;7.00;64.80
13093;DHT22;6612;49.568;11.000;2023-01-04T00:09:28;7.00;64.80
13093;DHT22;6612;49.568;11.000;2023-01-04T00:11:55;7.00;64.80
13093;DHT22;6612;49.568;11.000;2023-01-04T00:14:22;6.90;64.70
13093;DHT22;6612;49.568;11.000;2023-01-04T00:16:49;6.90;64.70
13093;DHT22;6612;49.568;11.000;2023-01-04T00:19:15;6.90;64.70
13093;DHT22;6612;49.568;11.000;2023-01-04T00:21:43;6.90;64.20
13093;DHT22;6612;49.568;11.000;2023-01-04T00:24:11;6.90;64.80
13093;DHT22;6612;49.568;11.000;2023-01-04T00:26:40;6.90;64.80
13093;DHT22;6612;49.568;11.000;2023-01-04T00:29:11;6.80;64.70
13093;DHT22;6612;49.568;11.000;2023-01-04T00:31:38;6.80;64.10
13093;DHT22;6612;49.568;11.000;2023-01-04T00:34:06;6.80;64.70
13093;DHT22;6612;49.568;11.000;2023-01-04T00:36:33;6.80;64.70
13093;DHT22;6612;49.568;11.000;2023-01-04T00:39:01;6.80;64.60
13093;DHT22;6612;49.568;11.000;2023-01-04T00:41:38;6.70;63.80
13093;DHT22;6612;49.568;11.000;2023-01-04T00:44:05;6.70;64.50
13093;DHT22;6612;49.568;11.000;2023-01-04T00:46:33;6.70;64.40
13093;DHT22;6612;49.568;11.000;2023-01-04T00:49:00;6.60;65.00
13093;DHT22;6612;49.568;11.000;2023-01-04T00:51:28;6.60;64.20
13093;DHT22;6612;49.568;11.000;2023-01-04T00:53:56;6.60;64.20
13093;DHT22;6612;49.568;11.000;2023-01-04T00:56:23;6.50;64.10
13093;DHT22;6612;49.568;11.000;2023-01-04T00:58:54;6.50;64.20
13093;DHT22;6612;49.568;11.000;2023-01-04T01:01:21;6.50;64.30
13093;DHT22;6612;49.568;11.000;2023-01-04T01:03:52;6.40;64.20
13093;DHT22;6612;49.568;11.000;2023-01-04T01:06:19;6.50;64.30
13093;DHT22;6612;49.568;11.000;2023-01-04T01:08:47;6.40;64.30
13093;DHT22;6612;49.568;11.000;2023-01-04T01:11:15;6.40;64.40
13093;DHT22;6612;49.568;11.000;2023-01-04T01:13:42;6.30;64.50
13093;DHT22;6612;49.568;11.000;2023-01-04T01:16:12;6.30;64.60
13093;DHT22;6612;49.568;11.000;2023-01-04T01:18:40;6.30;64.90
13093;DHT22;6612;49.568;11.000;2023-01-04T01:21:09;6.30;65.00
13093;DHT22;6612;49.568;11.000;2023-01-04T01:23:36;6.30;65.20
13093;DHT22;6612;49.568;11.000;2023-01-04T01:26:04;6.30;65.30
13093;DHT22;6612;49.568;11.000;2023-01-04T01:28:33;6.30;65.50
13093;DHT22;6612;49.568;11.000;2023-01-04T01:31:04;6.20;65.50
13093;DHT22;6612;49.568;11.000;2023-01-04T01:33:34;6.30;65.90
13093;DHT22;6612;49.568;11.000;2023-01-04T01:36:01;6.30;65.90
13093;DHT22;6612;49.568;11.000;2023-01-04T01:38:28;6.30;65.90
13093;DHT22;6612;49.568;11.000;2023-01-04T01:40:55;6.30;65.90
13093;DHT22;6612;49.568;11.000;2023-01-04T01:43:47;6.30;66.00
13093;DHT22;6612;49.568;11.000;2023-01-04T01:46:16;6.30;66.40
13093;DHT22;6612;49.568;11.000;2023-01-04T01:48:45;6.20;65.90
13093;DHT22;6612;49.568;11.000;2023-01-04T01:51:14;6.30;65.90
13093;DHT22;6612;49.568;11.000;2023-01-04T01:53:45;6.20;65.90
13093;DHT22;6612;49.568;11.000;2023-01-04T01:56:15;6.20;65.90
13093;DHT22;6612;49.568;11.000;2023-01-04T01:58:49;6.20;65.90
13093;DHT22;6612;49.568;11.000;2023-01-04T02:01:18;6.20;65.90
13093;DHT22;6612;49.568;11.000;2023-01-04T02:03:46;6.20;65.90
13093;DHT22;6612;49.568;11.000;2023-01-04T02:06:18;6.20;66.00
13093;DHT22;6612;49.568;11.000;2023-01-04T02:08:47;6.20;66.20
13093;DHT22;6612;49.568;11.000;2023-01-04T02:11:15;6.20;66.10
13093;DHT22;6612;49.568;11.000;2023-01-04T02:13:42;6.20;66.10
13093;DHT22;6612;49.568;11.000;2023-01-04T02:19:33;6.10;66.20
13093;DHT22;6612;49.568;11.000;2023-01-04T02:22:34;6.10;66.40
13093;DHT22;6612;49.568;11.000;2023-01-04T02:25:24;6.10;66.80
13093;DHT22;6612;49.568;11.000;2023-01-04T02:28:00;6.10;67.10
13093;DHT22;6612;49.568;11.000;2023-01-04T02:31:08;6.10;67.00
13093;DHT22;6612;49.568;11.000;2023-01-04T02:33:45;6.20;67.90
13093;DHT22;6612;49.568;11.000;2023-01-04T02:36:20;6.20;67.70
13093;DHT22;6612;49.568;11.000;2023-01-04T02:39:02;6.20;67.80
13093;DHT22;6612;49.568;11.000;2023-01-04T02:41:32;6.30;68.10
13093;DHT22;6612;49.568;11.000;2023-01-04T02:44:06;6.40;68.10
13093;DHT22;6612;49.568;11.000;2023-01-04T02:46:57;6.40;68.10
13093;DHT22;6612;49.568;11.000;2023-01-04T02:49:27;6.40;68.20
13093;DHT22;6612;49.568;11.000;2023-01-04T02:52:11;6.50;68.20
13093;DHT22;6612;49.568;11.000;2023-01-04T02:54:39;6.60;68.30
13093;DHT22;6612;49.568;11.000;2023-01-04T02:57:20;6.60;69.10
13093;DHT22;6612;49.568;11.000;2023-01-04T03:00:00;6.70;68.60
13093;DHT22;6612;49.568;11.000;2023-01-04T03:02:43;6.70;68.50
13093;DHT22;6612;49.568;11.000;2023-01-04T03:05:40;6.70;68.50
13093;DHT22;6612;49.568;11.000;2023-01-04T03:08:30;6.80;68.40
13093;DHT22;6612;49.568;11.000;2023-01-04T03:11:01;6.90;68.30
13093;DHT22;6612;49.568;11.000;2023-01-04T03:13:31;6.90;68.20
13093;DHT22;6612;49.568;11.000;2023-01-04T03:16:01;6.90;68.20
13093;DHT22;6612;49.568;11.000;2023-01-04T03:18:34;7.00;68.40
13093;DHT22;6612;49.568;11.000;2023-01-04T03:21:03;7.00;68.30
13093;DHT22;6612;49.568;11.000;2023-01-04T03:23:35;7.10;68.30
13093;DHT22;6612;49.568;11.000;2023-01-04T03:26:22;7.10;68.30
13093;DHT22;6612;49.568;11.000;2023-01-04T03:29:14;7.10;68.10
13093;DHT22;6612;49.568;11.000;2023-01-04T03:32:04;7.20;68.20
13093;DHT22;6612;49.568;11.000;2023-01-04T03:34:52;7.20;68.00
13093;DHT22;6612;49.568;11.000;2023-01-04T03:37:44;7.20;68.70
13093;DHT22;6612;49.568;11.000;2023-01-04T03:40:20;7.30;68.00
13093;DHT22;6612;49.568;11.000;2023-01-04T03:43:10;7.30;68.00
13093;DHT22;6612;49.568;11.000;2023-01-04T03:46:02;7.30;68.50
13093;DHT22;6612;49.568;11.000;2023-01-04T03:48:53;7.30;67.70
13093;DHT22;6612;49.568;11.000;2023-01-04T03:51:26;7.30;67.60
13093;DHT22;6612;49.568;11.000;2023-01-04T03:53:58;7.30;67.60
13093;DHT22;6612;49.568;11.000;2023-01-04T03:56:30;7.30;67.60
13093;DHT22;6612;49.568;11.000;2023-01-04T03:58:57;7.30;67.70
13093;DHT22;6612;49.568;11.000;2023-01-04T04:01:26;7.30;67.70
13093;DHT22;6612;49.568;11.000;2023-01-04T04:03:53;7.40;67.80
13093;DHT22;6612;49.568;11.000;2023-01-04T04:06:39;7.40;67.90
13093;DHT22;6612;49.568;11.000;2023-01-04T04:09:24;7.40;67.90
13093;DHT22;6612;49.568;11.000;2023-01-04T04:14:18;7.40;67.30
13093;DHT22;6612;49.568;11.000;2023-01-04T04:16:45;7.50;68.10
13093;DHT22;6612;49.568;11.000;2023-01-04T04:19:12;7.50;68.20
13093;DHT22;6612;49.568;11.000;2023-01-04T04:21:41;7.50;67.70
13093;DHT22;6612;49.568;11.000;2023-01-04T04:24:09;7.50;68.30
13093;DHT22;6612;49.568;11.000;2023-01-04T04:26:41;7.50;68.20
13093;DHT22;6612;49.568;11.000;2023-01-04T04:29:08;7.60;68.30
13093;DHT22;6612;49.568;11.000;2023-01-04T04:31:35;7.60;67.70
13093;DHT22;6612;49.568;11.000;2023-01-04T04:34:02;7.50;68.10
13093;DHT22;6612;49.568;11.000;2023-01-04T04:36:29;7.70;68.40
13093;DHT22;6612;49.568;11.000;2023-01-04T04:38:57;7.70;68.40
13093;DHT22;6612;49.568;11.000;2023-01-04T04:41:24;7.70;68.40
13093;DHT22;6612;49.568;11.000;2023-01-04T04:44:07;7.70;69.10
13093;DHT22;6612;49.568;11.000;2023-01-04T04:46:34;7.70;68.30
13093;DHT22;6612;49.568;11.000;2023-01-04T04:49:02;7.70;69.00
13093;DHT22;6612;49.568;11.000;2023-01-04T04:51:29;7.70;69.00
13093;DHT22;6612;49.568;11.000;2023-01-04T04:53:57;7.80;68.40
13093;DHT22;6612;49.568;11.000;2023-01-04T04:56:24;7.80;68.40
13093;DHT22;6612;49.568;11.000;2023-01-04T04:58:51;7.80;69.10
13093;DHT22;6612;49.568;11.000;2023-01-04T05:01:18;7.80;68.30
13093;DHT22;6612;49.568;11.000;2023-01-04T05:03:45;7.80;68.30
13093;DHT22;6612;49.568;11.000;2023-01-04T05:06:12;7.90;68.40
13093;DHT22;6612;49.568;11.000;2023-01-04T05:08:39;7.90;68.40
13093;DHT22;6612;49.568;11.000;2023-01-04T05:11:09;7.90;68.40
13093;DHT22;6612;49.568;11.000;2023-01-04T05:13:36;7.90;68.40
13093;DHT22;6612;49.568;11.000;2023-01-04T05:16:03;7.90;68.40
13093;DHT22;6612;49.568;11.000;2023-01-04T05:18:31;8.00;68.50
13093;DHT22;6612;49.568;11.000;2023-01-04T05:20:58;8.00;68.50
13093;DHT22;6612;49.568;11.000;2023-01-04T05:23:25;8.00;68.50
13093;DHT22;6612;49.568;11.000;2023-01-04T05:25:54;8.00;68.40
13093;DHT22;6612;49.568;11.000;2023-01-04T05:28:23;8.10;68.60
13093;DHT22;6612;49.568;11.000;2023-01-04T05:30:50;8.10;69.30
13093;DHT22;6612;49.568;11.000;2023-01-04T05:33:17;8.10;68.40
13093;DHT22;6612;49.568;11.000;2023-01-04T05:35:45;8.20;68.50
13093;DHT22;6612;49.568;11.000;2023-01-04T05:38:12;8.10;68.20
13093;DHT22;6612;49.568;11.000;2023-01-04T05:40:39;8.10;68.20
13093;DHT22;6612;49.568;11.000;2023-01-04T05:43:06;8.10;68.10
13093;DHT22;6612;49.568;11.000;2023-01-04T05:45:34;8.10;68.10
13093;DHT22;6612;49.568;11.000;2023-01-04T05:48:02;8.10;68.10
13093;DHT22;6612;49.568;11.000;2023-01-04T05:50:29;8.10;68.00
13093;DHT22;6612;49.568;11.000;2023-01-04T05:52:56;8.10;68.00
13093;DHT22;6612;49.568;11.000;2023-01-04T05:55:23;8.10;68.00
13093;DHT22;6612;49.568;11.000;2023-01-04T05:57:50;8.10;68.10
13093;DHT22;6612;49.568;11.000;2023-01-04T06:00:17;8.20;68.30
13093;DHT22;6612;49.568;11.000;2023-01-04T06:02:46;8.10;68.30
13093;DHT22;6612;49.568;11.000;2023-01-04T06:05:13;8.20;68.40
13093;DHT22;6612;49.568;11.000;2023-01-04T06:07:40;8.20;68.40
13093;DHT22;6612;49.568;11.000;2023-01-04T06:10:09;8.20;69.10
13093;DHT22;6612;49.568;11.000;2023-01-04T06:12:36;8.20;68.30
13093;DHT22;6612;49.568;11.000;2023-01-04T06:15:05;8.20;68.20
13093;DHT22;6612;49.568;11.000;2023-01-04T06:17:32;8.20;68.20
13093;DHT22;6612;49.568;11.000;2023-01-04T06:20:00;8.30;68.20
13093;DHT22;6612;49.568;11.000;2023-01-04T06:22:28;8.30;68.20
13093;DHT22;6612;49.568;11.000;2023-01-04T06:24:55;8.30;68.20
13093;DHT22;6612;49.568;11.000;2023-01-04T06:27:21;8.30;68.20
13093;DHT22;6612;49.568;11.000;2023-01-04T06:29:48;8.30;68.30
13093;DHT22;6612;49.568;11.000;2023-01-04T06:32:15;8.30;68.20
13093;DHT22;6612;49.568;11.000;2023-01-04T06:34:42;8.30;68.30
13093;DHT22;6612;49.568;11.000;2023-01-04T06:37:10;8.30;68.30
13093;DHT22;6612;49.568;11.000;2023-01-04T06:39:37;8.30;68.40
13093;DHT22;6612;49.568;11.000;2023-01-04T06:42:05;8.30;68.40
13093;DHT22;6612;49.568;11.000;2023-01-04T06:44:52;8.40;68.40
13093;DHT22;6612;49.568;11.000;2023-01-04T06:47:19;8.40;68.40
13093;DHT22;6612;49.568;11.000;2023-01-04T06:49:46;8.40;68.40
13093;DHT22;6612;49.568;11.000;2023-01-04T06:52:14;8.40;68.50
13093;DHT22;6612;49.568;11.000;2023-01-04T06:54:41;8.40;68.50
13093;DHT22;6612;49.568;11.000;2023-01-04T06:57:08;8.40;68.50
13093;DHT22;6612;49.568;11.000;2023-01-04T06:59:35;8.50;69.30
13093;DHT22;6612;49.568;11.000;2023-01-04T07:02:01;8.50;68.50
13093;DHT22;6612;49.568;11.000;2023-01-04T07:04:29;8.50;68.50
13093;DHT22;6612;49.568;11.000;2023-01-04T07:06:55;8.50;68.50
13093;DHT22;6612;49.568;11.000;2023-01-04T07:09:24;8.50;68.50
13093;DHT22;6612;49.568;11.000;2023-01-04T07:11:51;8.60;67.90
13093;DHT22;6612;49.568;11.000;2023-01-04T07:14:18;8.60;68.60
13093;DHT22;6612;49.568;11.000;2023-01-04T07:16:45;8.60;68.60
13093;DHT22;6612;49.568;11.000;2023-01-04T07:19:12;8.60;68.50
13093;DHT22;6612;49.568;11.000;2023-01-04T07:21:40;8.60;68.50
13093;DHT22;6612;49.568;11.000;2023-01-04T07:24:07;8.70;68.50
13093;DHT22;6612;49.568;11.000;2023-01-04T07:26:36;8.70;68.50
13093;DHT22;6612;49.568;11.000;2023-01-04T07:29:03;8.70;68.60
13093;DHT22;6612;49.568;11.000;2023-01-04T07:31:43;8.70;68.00
13093;DHT22;6612;49.568;11.000;2023-01-04T07:34:11;8.70;68.60
13093;DHT22;6612;49.568;11.000;2023-01-04T07:36:38;8.70;69.30
13093;DHT22;6612;49.568;11.000;2023-01-04T07:39:06;8.80;68.60
13093;DHT22;6612;49.568;11.000;2023-01-04T07:41:36;8.80;68.70
13093;DHT22;6612;49.568;11.000;2023-01-04T07:44:04;8.80;68.70
13093;DHT22;6612;49.568;11.000;2023-01-04T07:46:31;8.90;68.80
13093;DHT22;6612;49.568;11.000;2023-01-04T07:48:58;8.90;68.80
13093;DHT22;6612;49.568;11.000;2023-01-04T07:51:25;8.90;68.70
13093;DHT22;6612;49.568;11.000;2023-01-04T07:53:52;8.90;68.70
13093;DHT22;6612;49.568;11.000;2023-01-04T07:56:19;9.00;68.70
13093;DHT22;6612;49.568;11.000;2023-01-04T07:58:47;9.00;69.50
13093;DHT22;6612;49.568;11.000;2023-01-04T08:01:16;9.10;68.70
13093;DHT22;6612;49.568;11.000;2023-01-04T08:03:44;9.10;68.60
13093;DHT22;6612;49.568;11.000;2023-01-04T08:06:12;9.10;68.50
13093;DHT22;6612;49.568;11.000;2023-01-04T08:08:40;9.10;68.50
13093;DHT22;6612;49.568;11.000;2023-01-04T08:11:09;9.20;68.60
13093;DHT22;6612;49.568;11.000;2023-01-04T08:13:36;9.10;68.40
13093;DHT22;6612;49.568;11.000;2023-01-04T08:16:06;9.10;68.40
13093;DHT22;6612;49.568;11.000;2023-01-04T08:18:33;9.20;68.60
13093;DHT22;6612;49.568;11.000;2023-01-04T08:21:01;9.20;68.50
13093;DHT22;6612;49.568;11.000;2023-01-04T08:23:28;9.20;68.60
13093;DHT22;6612;49.568;11.000;2023-01-04T08:25:59;9.20;68.60
13093;DHT22;6612;49.568;11.000;2023-01-04T08:28:26;9.20;68.70
13093;DHT22;6612;49.568;11.000;2023-01-04T08:30:53;9.20;68.70
13093;DHT22;6612;49.568;11.000;2023-01-04T08:33:22;9.20;68.70
13093;DHT22;6612;49.568;11.000;2023-01-04T08:35:49;9.20;68.80
13093;DHT22;6612;49.568;11.000;2023-01-04T08:38:15;9.20;68.80
13093;DHT22;6612;49.568;11.000;2023-01-04T08:40:42;9.20;69.70
13093;DHT22;6612;49.568;11.000;2023-01-04T08:43:09;9.10;68.90
13093;DHT22;6612;49.568;11.000;2023-01-04T08:45:36;9.20;69.20
13093;DHT22;6612;49.568;11.000;2023-01-04T08:48:03;9.30;69.40
13093;DHT22;6612;49.568;11.000;2023-01-04T08:50:32;9.30;69.50
13093;DHT22;6612;49.568;11.000;2023-01-04T08:52:59;9.30;69.60
13093;DHT22;6612;49.568;11.000;2023-01-04T08:55:26;9.40;69.60
13093;DHT22;6612;49.568;11.000;2023-01-04T08:57:53;9.40;70.30
13093;DHT22;6612;49.568;11.000;2023-01-04T09:00:20;9.40;69.50
13093;DHT22;6612;49.568;11.000;2023-01-04T09:02:47;9.40;69.70
13093;DHT22;6612;49.568;11.000;2023-01-04T09:05:14;9.50;69.90
13093;DHT22;6612;49.568;11.000;2023-01-04T09:07:42;9.50;69.80
13093;DHT22;6612;49.568;11.000;2023-01-04T09:10:09;9.60;69.90
13093;DHT22;6612;49.568;11.000;2023-01-04T09:12:36;9.60;70.00
13093;DHT22;6612;49.568;11.000;2023-01-04T09:15:04;9.70;70.10
13093;DHT22;6612;49.568;11.000;2023-01-04T09:17:32;9.70;70.00
13093;DHT22;6612;49.568;11.000;2023-01-04T09:19:59;9.80;70.10
13093;DHT22;6612;49.568;11.000;2023-01-04T09:22:26;9.80;70.20
13093;DHT22;6612;49.568;11.000;2023-01-04T09:24:54;9.90;70.20
13093;DHT22;6612;49.568;11.000;2023-01-04T09:27:21;10.00;69.10
13093;DHT22;6612;49.568;11.000;2023-01-04T09:29:48;10.00;69.20
13093;DHT22;6612;49.568;11.000;2023-01-04T09:32:14;10.10;69.20
13093;DHT22;6612;49.568;11.000;2023-01-04T09:34:41;10.00;68.90
13093;DHT22;6612;49.568;11.000;2023-01-04T09:37:08;10.20;69.00
13093;DHT22;6612;49.568;11.000;2023-01-04T09:39:35;10.30;68.90
13093;DHT22;6612;49.568;11.000;2023-01-04T09:42:15;10.40;68.90
13093;DHT22;6612;49.568;11.000;2023-01-04T09:44:46;10.40;69.20
13093;DHT22;6612;49.568;11.000;2023-01-04T09:47:17;10.50;68.60
13093;DHT22;6612;49.568;11.000;2023-01-04T09:49:51;10.60;69.30
13093;DHT22;6612;49.568;11.000;2023-01-04T09:52:22;10.70;68.50
13093;DHT22;6612;49.568;11.000;2023-01-04T09:54:54;10.70;68.40
13093;DHT22;6612;49.568;11.000;2023-01-04T09:57:26;10.80;68.30
13093;DHT22;6612;49.568;11.000;2023-01-04T09:59:58;10.90;67.90
13093;DHT22;6612;49.568;11.000;2023-01-04T10:02:41;10.90;67.70
13093;DHT22;6612;49.568;11.000;2023-01-04T10:05:14;11.00;67.70
13093;DHT22;6612;49.568;11.000;2023-01-04T10:07:43;11.10;67.40
13093;DHT22;6612;49.568;11.000;2023-01-04T10:10:13;11.20;67.80
13093;DHT22;6612;49.568;11.000;2023-01-04T10:12:47;11.30;67.50
13093;DHT22;6612;49.568;11.000;2023-01-04T10:15:33;11.30;67.00
13093;DHT22;6612;49.568;11.000;2023-01-04T10:18:12;11.40;66.20
13093;DHT22;6612;49.568;11.000;2023-01-04T10:20:51;11.40;66.20
13093;DHT22;6612;49.568;11.000;2023-01-04T10:23:31;11.50;66.20
13093;DHT22;6612;49.568;11.000;2023-01-04T10:26:09;11.50;66.00
13093;DHT22;6612;49.568;11.000;2023-01-04T10:31:43;11.50;65.30
13093;DHT22;6612;49.568;11.000;2023-01-04T10:34:21;11.60;65.80
13093;DHT22;6612;49.568;11.000;2023-01-04T10:36:50;11.60;65.60
13093;DHT22;6612;49.568;11.000;2023-01-04T10:39:21;11.60;65.80
13093;DHT22;6612;49.568;11.000;2023-01-04T10:41:52;11.60;65.60
13093;DHT22;6612;49.568;11.000;2023-01-04T10:44:24;11.60;65.70
13093;DHT22;6612;49.568;11.000;2023-01-04T10:47:01;11.70;65.80
13093;DHT22;6612;49.568;11.000;2023-01-04T10:49:39;11.70;65.60
13093;DHT22;6612;49.568;11.000;2023-01-04T10:52:10;11.80;65.70
13093;DHT22;6612;49.568;11.000;2023-01-04T10:54:41;11.80;65.90
13093;DHT22;6612;49.568;11.000;2023-01-04T10:57:14;11.90;65.90
13093;DHT22;6612;49.568;11.000;2023-01-04T10:59:46;11.90;65.50
13093;DHT22;6612;49.568;11.000;2023-01-04T11:02:18;11.90;65.40
13093;DHT22;6612;49.568;11.000;2023-01-04T11:04:51;12.00;65.40
13093;DHT22;6612;49.568;11.000;2023-01-04T11:07:24;12.00;65.10
13093;DHT22;6612;49.568;11.000;2023-01-04T11:09:56;12.10;65.20
13093;DHT22;6612;49.568;11.000;2023-01-04T11:12:25;12.10;65.00
13093;DHT22;6612;49.568;11.000;2023-01-04T11:14:54;12.10;65.10
13093;DHT22;6612;49.568;11.000;2023-01-04T11:17:22;12.10;64.10
13093;DHT22;6612;49.568;11.000;2023-01-04T11:19:50;12.10;64.70
13093;DHT22;6612;49.568;11.000;2023-01-04T11:22:20;12.10;64.70
13093;DHT22;6612;49.568;11.000;2023-01-04T11:24:50;12.10;64.30
13093;DHT22;6612;49.568;11.000;2023-01-04T11:27:22;12.20;64.50
13093;DHT22;6612;49.568;11.000;2023-01-04T11:29:53;12.20;64.30
13093;DHT22;6612;49.568;11.000;2023-01-04T11:32:30;12.20;64.20
13093;DHT22;6612;49.568;11.000;2023-01-04T11:34:59;12.20;64.00
13093;DHT22;6612;49.568;11.000;2023-01-04T11:37:29;12.20;64.30
13093;DHT22;6612;49.568;11.000;2023-01-04T11:40:16;12.20;64.20
13093;DHT22;6612;49.568;11.000;2023-01-04T11:42:44;12.20;63.40
13093;DHT22;6612;49.568;11.000;2023-01-04T11:45:19;12.20;64.20
13093;DHT22;6612;49.568;11.000;2023-01-04T11:47:51;12.20;63.80
13093;DHT22;6612;49.568;11.000;2023-01-04T11:50:39;12.20;64.80
13093;DHT22;6612;49.568;11.000;2023-01-04T11:53:26;12.30;63.60
13093;DHT22;6612;49.568;11.000;2023-01-04T11:56:18;12.30;63.60
13093;DHT22;6612;49.568;11.000;2023-01-04T11:59:13;12.30;63.60
13093;DHT22;6612;49.568;11.000;2023-01-04T12:01:43;12.40;63.60
13093;DHT22;6612;49.568;11.000;2023-01-04T12:04:13;12.40;63.90
13093;DHT22;6612;49.568;11.000;2023-01-04T12:06:45;12.40;63.90
13093;DHT22;6612;49.568;11.000;2023-01-04T12:09:15;12.40;64.00
13093;DHT22;6612;49.568;11.000;2023-01-04T12:11:46;12.50;63.60
13093;DHT22;6612;49.568;11.000;2023-01-04T12:14:20;12.50;64.00
13093;DHT22;6612;49.568;11.000;2023-01-04T12:16:53;12.50;63.80
13093;DHT22;6612;49.568;11.000;2023-01-04T12:19:24;12.50;63.70
13093;DHT22;6612;49.568;11.000;2023-01-04T12:21:54;12.60;64.00
13093;DHT22;6612;49.568;11.000;2023-01-04T12:24:24;12.60;64.70
13093;DHT22;6612;49.568;11.000;2023-01-04T12:26:52;12.60;63.90
13093;DHT22;6612;49.568;11.000;2023-01-04T12:32:44;12.70;63.30
13093;DHT22;6612;49.568;11.000;2023-01-04T12:39:00;12.70;63.10
13093;DHT22;6612;49.568;11.000;2023-01-04T12:47:51;12.90;63.50
13093;DHT22;6612;49.568;11.000;2023-01-04T12:51:16;12.90;63.80
13093;DHT22;6612;49.568;11.000;2023-01-04T12:53:55;12.90;63.20
13093;DHT22;6612;49.568;11.000;2023-01-04T12:56:23;13.00;63.80
13093;DHT22;6612;49.568;11.000;2023-01-04T12:59:10;13.00;64.30
13093;DHT22;6612;49.568;11.000;2023-01-04T13:01:38;13.10;64.00
13093;DHT22;6612;49.568;11.000;2023-01-04T13:04:29;13.10;64.50
13093;DHT22;6612;49.568;11.000;2023-01-04T13:07:12;13.10;63.50
13093;DHT22;6612;49.568;11.000;2023-01-04T13:09:50;13.20;64.00
13093;DHT22;6612;49.568;11.000;2023-01-04T13:12:55;13.20;64.10
13093;DHT22;6612;49.568;11.000;2023-01-04T13:15:37;13.30;63.40
13093;DHT22;6612;49.568;11.000;2023-01-04T13:18:32;13.40;63.90
13093;DHT22;6612;49.568;11.000;2023-01-04T13:21:02;13.40;63.60
13093;DHT22;6612;49.568;11.000;2023-01-04T13:23:29;13.40;64.00
13093;DHT22;6612;49.568;11.000;2023-01-04T13:29:17;13.50;63.10
13093;DHT22;6612;49.568;11.000;2023-01-04T13:31:51;16.30;66.10
13093;DHT22;6612;49.568;11.000;2023-01-04T13:34:21;13.50;63.50
13093;DHT22;6612;49.568;11.000;2023-01-04T13:36:55;13.50;64.30
13093;DHT22;6612;49.568;11.000;2023-01-04T13:39:24;13.50;63.30
13093;DHT22;6612;49.568;11.000;2023-01-04T13:41:52;13.60;62.80
13093;DHT22;6612;49.568;11.000;2023-01-04T13:44:24;13.50;63.50
13093;DHT22;6612;49.568;11.000;2023-01-04T13:46:54;13.50;63.30
13093;DHT22;6612;49.568;11.000;2023-01-04T13:49:22;13.50;63.30
13093;DHT22;6612;49.568;11.000;2023-01-04T13:51:50;13.60;62.90
13093;DHT22;6612;49.568;11.000;2023-01-04T13:54:20;13.50;63.40
13093;DHT22;6612;49.568;11.000;2023-01-04T13:56:47;13.60;63.30
13093;DHT22;6612;49.568;11.000;2023-01-04T13:59:15;13.60;63.50
13093;DHT22;6612;49.568;11.000;2023-01-04T14:01:44;13.60;62.80
13093;DHT22;6612;49.568;11.000;2023-01-04T14:04:15;13.60;63.40
13093;DHT22;6612;49.568;11.000;2023-01-04T14:06:46;13.60;63.30
13093;DHT22;6612;49.568;11.000;2023-01-04T14:09:16;13.60;63.40
13093;DHT22;6612;49.568;11.000;2023-01-04T14:11:47;13.70;62.70
13093;DHT22;6612;49.568;11.000;2023-01-04T14:14:46;13.70;63.30
13093;DHT22;6612;49.568;11.000;2023-01-04T14:17:35;13.70;62.80
13093;DHT22;6612;49.568;11.000;2023-01-04T14:20:05;13.70;62.70
13093;DHT22;6612;49.568;11.000;2023-01-04T14:22:37;13.70;63.30
13093;DHT22;6612;49.568;11.000;2023-01-04T14:25:34;13.70;63.10
13093;DHT22;6612;49.568;11.000;2023-01-04T14:28:23;13.70;62.70
13093;DHT22;6612;49.568;11.000;2023-01-04T14:30:54;13.70;62.70
13093;DHT22;6612;49.568;11.000;2023-01-04T14:33:26;13.70;63.40
13093;DHT22;6612;49.568;11.000;2023-01-04T14:36:03;13.70;63.20
13093;DHT22;6612;49.568;11.000;2023-01-04T14:38:36;13.70;63.20
13093;DHT22;6612;49.568;11.000;2023-01-04T14:41:14;13.70;63.60
13093;DHT22;6612;49.568;11.000;2023-01-04T14:43:47;13.70;63.40
13093;DHT22;6612;49.568;11.000;2023-01-04T14:46:14;13.70;63.60
13093;DHT22;6612;49.568;11.000;2023-01-04T14:48:41;13.70;64.40
13093;DHT22;6612;49.568;11.000;2023-01-04T14:51:11;13.70;64.40
13093;DHT22;6612;49.568;11.000;2023-01-04T14:53:40;13.70;63.60
13093;DHT22;6612;49.568;11.000;2023-01-04T14:56:11;13.70;64.50
13093;DHT22;6612;49.568;11.000;2023-01-04T14:58:38;13.70;63.60
13093;DHT22;6612;49.568;11.000;2023-01-04T15:01:07;13.70;63.80
13093;DHT22;6612;49.568;11.000;2023-01-04T15:03:34;13.70;63.80
13093;DHT22;6612;49.568;11.000;2023-01-04T15:06:01;13.70;64.00
13093;DHT22;6612;49.568;11.000;2023-01-04T15:08:29;13.70;64.10
13093;DHT22;6612;49.568;11.000;2023-01-04T15:10:56;13.60;64.10
13093;DHT22;6612;49.568;11.000;2023-01-04T15:13:22;13.60;64.30
13093;DHT22;6612;49.568;11.000;2023-01-04T15:15:49;13.60;64.40
13093;DHT22;6612;49.568;11.000;2023-01-04T15:18:18;13.60;64.60
13093;DHT22;6612;49.568;11.000;2023-01-04T15:20:44;13.60;64.70
13093;DHT22;6612;49.568;11.000;2023-01-04T15:23:11;13.50;64.70
13093;DHT22;6612;49.568;11.000;2023-01-04T15:25:38;13.50;64.80
13093;DHT22;6612;49.568;11.000;2023-01-04T15:28:05;13.50;65.00
13093;DHT22;6612;49.568;11.000;2023-01-04T15:30:33;13.40;65.00
13093;DHT22;6612;49.568;11.000;2023-01-04T15:33:00;13.40;65.10
13093;DHT22;6612;49.568;11.000;2023-01-04T15:35:28;13.40;65.20
13093;DHT22;6612;49.568;11.000;2023-01-04T15:37:55;13.40;65.40
13093;DHT22;6612;49.568;11.000;2023-01-04T15:40:22;13.30;65.40
13093;DHT22;6612;49.568;11.000;2023-01-04T15:42:49;13.30;65.50
13093;DHT22;6612;49.568;11.000;2023-01-04T15:45:23;13.30;65.60
13093;DHT22;6612;49.568;11.000;2023-01-04T15:47:50;13.20;65.60
13093;DHT22;6612;49.568;11.000;2023-01-04T15:50:18;13.20;65.80
13093;DHT22;6612;49.568;11.000;2023-01-04T15:52:46;13.20;65.90
13093;DHT22;6612;49.568;11.000;2023-01-04T15:55:13;13.20;66.10
13093;DHT22;6612;49.568;11.000;2023-01-04T15:57:40;13.20;66.10
13093;DHT22;6612;49.568;11.000;2023-01-04T16:00:08;13.10;66.10
13093;DHT22;6612;49.568;11.000;2023-01-04T16:02:36;13.10;66.20
13093;DHT22;6612;49.568;11.000;2023-01-04T16:05:03;13.10;66.20
13093;DHT22;6612;49.568;11.000;2023-01-04T16:07:30;13.10;66.30
13093;DHT22;6612;49.568;11.000;2023-01-04T16:09:58;13.10;66.40
13093;DHT22;6612;49.568;11.000;2023-01-04T16:12:25;13.10;66.50
13093;DHT22;6612;49.568;11.000;2023-01-04T16:15:10;13.10;67.40
13093;DHT22;6612;49.568;11.000;2023-01-04T16:17:37;13.00;66.60
13093;DHT22;6612;49.568;11.000;2023-01-04T16:20:05;13.00;66.70
13093;DHT22;6612;49.568;11.000;2023-01-04T16:22:32;13.00;66.80
13093;DHT22;6612;49.568;11.000;2023-01-04T16:25:01;13.00;66.80
13093;DHT22;6612;49.568;11.000;2023-01-04T16:27:29;13.00;66.90
13093;DHT22;6612;49.568;11.000;2023-01-04T16:29:56;13.00;67.70
13093;DHT22;6612;49.568;11.000;2023-01-04T16:32:23;13.00;67.00